sensor_id;sensor_type;location;lat;lon;timestamp;P1;durP1;ratioP1;P2;durP2;ratioP2
59607;SDS011;45426;44.726;10.390;2023-06-22T00:01:49;15.75;;;6.60;;
59607;SDS011;45426;44.726;10.390;2023-06-22T00:04:15;14.23;;;6.65;;
59607;SDS011;45426;44.726;10.390;2023-06-22T00:06:40;12.70;;;6.22;;
59607;SDS011;45426;44.726;10.390;2023-06-22T00:09:06;12.85;;;6.07;;
59607;SDS011;45426;44.726;10.390;2023-06-22T00:11:32;11.80;;;6.32;;
59607;SDS011;45426;44.726;10.390;2023-06-22T00:13:58;16.80;;;6.65;;
59607;SDS011;45426;44.726;10.390;2023-06-22T00:16:24;12.52;;;6.07;;
59607;SDS011;45426;44.726;10.390;2023-06-22T00:18:50;13.00;;;6.65;;
59607;SDS011;45426;44.726;10.390;2023-06-22T00:21:15;12.20;;;6.30;;
59607;SDS011;45426;44.726;10.390;2023-06-22T00:23:40;11.25;;;6.25;;
59607;SDS011;45426;44.726;10.390;2023-06-22T00:26:06;16.35;;;6.10;;
59607;SDS011;45426;44.726;10.390;2023-06-22T00:28:32;11.43;;;5.88;;
59607;SDS011;45426;44.726;10.390;2023-06-22T00:30:57;14.63;;;5.90;;
59607;SDS011;45426;44.726;10.390;2023-06-22T00:33:23;15.80;;;6.35;;
59607;SDS011;45426;44.726;10.390;2023-06-22T00:35:48;10.95;;;6.03;;
59607;SDS011;45426;44.726;10.390;2023-06-22T00:38:17;11.65;;;5.57;;
59607;SDS011;45426;44.726;10.390;2023-06-22T00:40:43;12.20;;;5.72;;
59607;SDS011;45426;44.726;10.390;2023-06-22T00:43:09;12.02;;;5.80;;
59607;SDS011;45426;44.726;10.390;2023-06-22T00:45:34;12.88;;;6.03;;
59607;SDS011;45426;44.726;10.390;2023-06-22T00:48:00;13.73;;;6.18;;
59607;SDS011;45426;44.726;10.390;2023-06-22T00:50:27;14.77;;;6.10;;
59607;SDS011;45426;44.726;10.390;2023-06-22T00:52:58;13.32;;;5.95;;
59607;SDS011;45426;44.726;10.390;2023-06-22T00:55:25;12.30;;;6.00;;
59607;SDS011;45426;44.726;10.390;2023-06-22T00:57:51;11.90;;;6.00;;
59607;SDS011;45426;44.726;10.390;2023-06-22T01:00:21;13.55;;;5.97;;
59607;SDS011;45426;44.726;10.390;2023-06-22T01:02:49;12.00;;;6.00;;
59607;SDS011;45426;44.726;10.390;2023-06-22T01:05:19;10.82;;;6.22;;
59607;SDS011;45426;44.726;10.390;2023-06-22T01:13:16;13.23;;;6.20;;
59607;SDS011;45426;44.726;10.390;2023-06-22T01:15:50;13.65;;;6.32;;
59607;SDS011;45426;44.726;10.390;2023-06-22T01:18:21;14.90;;;6.63;;
59607;SDS011;45426;44.726;10.390;2023-06-22T01:20:51;13.35;;;6.43;;
59607;SDS011;45426;44.726;10.390;2023-06-22T01:23:26;12.20;;;6.07;;
59607;SDS011;45426;44.726;10.390;2023-06-22T01:29:01;14.20;;;6.00;;
59607;SDS011;45426;44.726;10.390;2023-06-22T01:31:29;13.50;;;6.15;;
59607;SDS011;45426;44.726;10.390;2023-06-22T01:33:59;12.52;;;6.00;;
59607;SDS011;45426;44.726;10.390;2023-06-22T01:36:27;13.88;;;6.40;;
59607;SDS011;45426;44.726;10.390;2023-06-22T01:38:54;12.70;;;6.15;;
59607;SDS011;45426;44.726;10.390;2023-06-22T01:41:21;15.10;;;6.18;;
59607;SDS011;45426;44.726;10.390;2023-06-22T01:43:50;14.00;;;6.05;;
59607;SDS011;45426;44.726;10.390;2023-06-22T01:46:16;14.80;;;6.15;;
59607;SDS011;45426;44.726;10.390;2023-06-22T01:48:44;13.75;;;6.05;;
59607;SDS011;45426;44.726;10.390;2023-06-22T01:51:11;12.43;;;6.25;;
59607;SDS011;45426;44.726;10.390;2023-06-22T01:53:37;12.68;;;6.25;;
59607;SDS011;45426;44.726;10.390;2023-06-22T01:56:02;14.18;;;6.45;;
59607;SDS011;45426;44.726;10.390;2023-06-22T01:58:29;16.75;;;6.90;;
59607;SDS011;45426;44.726;10.390;2023-06-22T02:01:00;12.15;;;6.30;;
59607;SDS011;45426;44.726;10.390;2023-06-22T02:03:37;12.60;;;6.30;;
59607;SDS011;45426;44.726;10.390;2023-06-22T02:06:27;12.65;;;6.57;;
59607;SDS011;45426;44.726;10.390;2023-06-22T02:09:01;15.82;;;6.50;;
59607;SDS011;45426;44.726;10.390;2023-06-22T02:11:28;16.50;;;6.82;;
59607;SDS011;45426;44.726;10.390;2023-06-22T02:13:56;13.38;;;7.45;;
59607;SDS011;45426;44.726;10.390;2023-06-22T02:16:22;15.40;;;8.50;;
59607;SDS011;45426;44.726;10.390;2023-06-22T02:18:48;14.77;;;8.25;;
59607;SDS011;45426;44.726;10.390;2023-06-22T02:21:18;15.38;;;8.20;;
59607;SDS011;45426;44.726;10.390;2023-06-22T02:23:44;13.48;;;7.85;;
59607;SDS011;45426;44.726;10.390;2023-06-22T02:26:10;15.35;;;7.93;;
59607;SDS011;45426;44.726;10.390;2023-06-22T02:28:35;15.95;;;8.10;;
59607;SDS011;45426;44.726;10.390;2023-06-22T02:31:01;16.10;;;8.32;;
59607;SDS011;45426;44.726;10.390;2023-06-22T02:33:26;15.18;;;8.70;;
59607;SDS011;45426;44.726;10.390;2023-06-22T02:35:52;17.75;;;8.77;;
59607;SDS011;45426;44.726;10.390;2023-06-22T02:38:18;16.10;;;8.55;;
59607;SDS011;45426;44.726;10.390;2023-06-22T02:40:44;17.13;;;8.40;;
59607;SDS011;45426;44.726;10.390;2023-06-22T02:43:10;17.80;;;9.20;;
59607;SDS011;45426;44.726;10.390;2023-06-22T02:45:35;18.70;;;8.57;;
59607;SDS011;45426;44.726;10.390;2023-06-22T02:48:00;16.17;;;8.30;;
59607;SDS011;45426;44.726;10.390;2023-06-22T02:50:26;14.05;;;8.65;;
59607;SDS011;45426;44.726;10.390;2023-06-22T02:52:51;16.23;;;8.77;;
59607;SDS011;45426;44.726;10.390;2023-06-22T02:55:17;16.05;;;9.15;;
59607;SDS011;45426;44.726;10.390;2023-06-22T02:57:42;13.38;;;8.43;;
59607;SDS011;45426;44.726;10.390;2023-06-22T03:00:10;19.23;;;9.05;;
59607;SDS011;45426;44.726;10.390;2023-06-22T03:02:48;13.55;;;8.65;;
59607;SDS011;45426;44.726;10.390;2023-06-22T03:05:15;16.45;;;9.00;;
59607;SDS011;45426;44.726;10.390;2023-06-22T03:07:43;15.40;;;8.93;;
59607;SDS011;45426;44.726;10.390;2023-06-22T03:10:09;17.35;;;9.30;;
59607;SDS011;45426;44.726;10.390;2023-06-22T03:12:36;13.98;;;9.15;;
59607;SDS011;45426;44.726;10.390;2023-06-22T03:15:03;15.68;;;10.10;;
59607;SDS011;45426;44.726;10.390;2023-06-22T03:17:33;15.25;;;9.85;;
59607;SDS011;45426;44.726;10.390;2023-06-22T03:19:59;18.95;;;9.88;;
59607;SDS011;45426;44.726;10.390;2023-06-22T03:22:24;15.18;;;9.65;;
59607;SDS011;45426;44.726;10.390;2023-06-22T03:24:50;16.02;;;9.52;;
59607;SDS011;45426;44.726;10.390;2023-06-22T03:27:15;15.10;;;9.30;;
59607;SDS011;45426;44.726;10.390;2023-06-22T03:29:41;17.63;;;10.32;;
59607;SDS011;45426;44.726;10.390;2023-06-22T03:32:06;17.25;;;9.90;;
59607;SDS011;45426;44.726;10.390;2023-06-22T03:34:32;16.80;;;9.50;;
59607;SDS011;45426;44.726;10.390;2023-06-22T03:37:03;15.68;;;9.43;;
59607;SDS011;45426;44.726;10.390;2023-06-22T03:39:29;15.95;;;9.23;;
59607;SDS011;45426;44.726;10.390;2023-06-22T03:41:55;14.60;;;9.20;;
59607;SDS011;45426;44.726;10.390;2023-06-22T03:44:20;17.45;;;9.25;;
59607;SDS011;45426;44.726;10.390;2023-06-22T03:46:46;14.10;;;9.15;;
59607;SDS011;45426;44.726;10.390;2023-06-22T03:49:11;14.43;;;8.70;;
59607;SDS011;45426;44.726;10.390;2023-06-22T03:51:36;15.02;;;9.00;;
59607;SDS011;45426;44.726;10.390;2023-06-22T03:54:02;16.20;;;8.88;;
59607;SDS011;45426;44.726;10.390;2023-06-22T03:56:27;16.63;;;9.13;;
59607;SDS011;45426;44.726;10.390;2023-06-22T03:58:53;17.38;;;8.93;;
59607;SDS011;45426;44.726;10.390;2023-06-22T04:01:18;14.60;;;9.18;;
59607;SDS011;45426;44.726;10.390;2023-06-22T04:03:44;16.23;;;9.18;;
59607;SDS011;45426;44.726;10.390;2023-06-22T04:06:09;15.43;;;9.02;;
59607;SDS011;45426;44.726;10.390;2023-06-22T04:08:35;16.52;;;8.82;;
59607;SDS011;45426;44.726;10.390;2023-06-22T04:11:00;17.35;;;8.98;;
59607;SDS011;45426;44.726;10.390;2023-06-22T04:13:25;17.42;;;9.00;;
59607;SDS011;45426;44.726;10.390;2023-06-22T04:15:51;14.90;;;8.63;;
59607;SDS011;45426;44.726;10.390;2023-06-22T04:18:16;23.58;;;10.25;;
59607;SDS011;45426;44.726;10.390;2023-06-22T04:20:42;24.20;;;11.38;;
59607;SDS011;45426;44.726;10.390;2023-06-22T04:23:12;17.05;;;9.63;;
59607;SDS011;45426;44.726;10.390;2023-06-22T04:25:37;19.08;;;10.70;;
59607;SDS011;45426;44.726;10.390;2023-06-22T04:28:03;17.15;;;9.10;;
59607;SDS011;45426;44.726;10.390;2023-06-22T04:30:29;19.33;;;8.90;;
59607;SDS011;45426;44.726;10.390;2023-06-22T04:32:56;15.60;;;7.72;;
59607;SDS011;45426;44.726;10.390;2023-06-22T04:35:23;15.60;;;8.25;;
59607;SDS011;45426;44.726;10.390;2023-06-22T04:37:49;13.52;;;7.45;;
59607;SDS011;45426;44.726;10.390;2023-06-22T04:40:20;16.13;;;6.88;;
59607;SDS011;45426;44.726;10.390;2023-06-22T04:42:48;15.77;;;7.80;;
59607;SDS011;45426;44.726;10.390;2023-06-22T04:45:18;14.10;;;7.38;;
59607;SDS011;45426;44.726;10.390;2023-06-22T04:47:45;13.85;;;6.88;;
59607;SDS011;45426;44.726;10.390;2023-06-22T04:50:11;13.68;;;7.20;;
59607;SDS011;45426;44.726;10.390;2023-06-22T04:52:37;16.48;;;7.07;;
59607;SDS011;45426;44.726;10.390;2023-06-22T04:55:03;15.50;;;7.22;;
59607;SDS011;45426;44.726;10.390;2023-06-22T04:57:29;15.20;;;8.18;;
59607;SDS011;45426;44.726;10.390;2023-06-22T05:00:00;14.82;;;7.57;;
59607;SDS011;45426;44.726;10.390;2023-06-22T05:02:38;12.57;;;7.32;;
59607;SDS011;45426;44.726;10.390;2023-06-22T05:05:04;15.40;;;7.60;;
59607;SDS011;45426;44.726;10.390;2023-06-22T05:07:34;14.90;;;7.13;;
59607;SDS011;45426;44.726;10.390;2023-06-22T05:10:01;13.43;;;7.28;;
59607;SDS011;45426;44.726;10.390;2023-06-22T05:12:28;16.25;;;6.88;;
59607;SDS011;45426;44.726;10.390;2023-06-22T05:14:54;15.40;;;7.00;;
59607;SDS011;45426;44.726;10.390;2023-06-22T05:17:19;15.05;;;6.90;;
59607;SDS011;45426;44.726;10.390;2023-06-22T05:19:45;13.48;;;7.47;;
59607;SDS011;45426;44.726;10.390;2023-06-22T05:22:16;13.95;;;7.65;;
59607;SDS011;45426;44.726;10.390;2023-06-22T05:24:42;13.60;;;7.28;;
59607;SDS011;45426;44.726;10.390;2023-06-22T05:27:08;14.40;;;7.20;;
59607;SDS011;45426;44.726;10.390;2023-06-22T05:29:34;16.33;;;7.50;;
59607;SDS011;45426;44.726;10.390;2023-06-22T05:32:00;14.75;;;7.63;;
59607;SDS011;45426;44.726;10.390;2023-06-22T05:34:25;17.23;;;6.90;;
59607;SDS011;45426;44.726;10.390;2023-06-22T05:36:55;19.23;;;8.00;;
59607;SDS011;45426;44.726;10.390;2023-06-22T05:39:20;15.63;;;7.25;;
59607;SDS011;45426;44.726;10.390;2023-06-22T05:41:46;13.70;;;7.05;;
59607;SDS011;45426;44.726;10.390;2023-06-22T05:44:11;21.25;;;7.55;;
59607;SDS011;45426;44.726;10.390;2023-06-22T05:46:40;13.82;;;7.55;;
59607;SDS011;45426;44.726;10.390;2023-06-22T05:49:09;16.88;;;8.13;;
59607;SDS011;45426;44.726;10.390;2023-06-22T05:51:35;14.80;;;7.60;;
59607;SDS011;45426;44.726;10.390;2023-06-22T05:54:00;16.80;;;7.80;;
59607;SDS011;45426;44.726;10.390;2023-06-22T05:56:26;16.20;;;7.88;;
59607;SDS011;45426;44.726;10.390;2023-06-22T05:58:51;13.32;;;6.97;;
59607;SDS011;45426;44.726;10.390;2023-06-22T06:01:17;17.02;;;7.25;;
59607;SDS011;45426;44.726;10.390;2023-06-22T06:03:42;15.02;;;6.82;;
59607;SDS011;45426;44.726;10.390;2023-06-22T06:06:07;14.90;;;6.00;;
59607;SDS011;45426;44.726;10.390;2023-06-22T06:08:33;15.55;;;6.32;;
59607;SDS011;45426;44.726;10.390;2023-06-22T06:10:58;12.30;;;5.78;;
59607;SDS011;45426;44.726;10.390;2023-06-22T06:13:24;14.30;;;6.85;;
59607;SDS011;45426;44.726;10.390;2023-06-22T06:15:49;15.35;;;5.72;;
59607;SDS011;45426;44.726;10.390;2023-06-22T06:18:20;13.70;;;6.05;;
59607;SDS011;45426;44.726;10.390;2023-06-22T06:20:45;16.00;;;5.90;;
59607;SDS011;45426;44.726;10.390;2023-06-22T06:23:11;12.95;;;5.43;;
59607;SDS011;45426;44.726;10.390;2023-06-22T06:25:36;11.35;;;5.28;;
59607;SDS011;45426;44.726;10.390;2023-06-22T06:28:01;13.35;;;5.85;;
59607;SDS011;45426;44.726;10.390;2023-06-22T06:30:28;9.77;;;4.97;;
59607;SDS011;45426;44.726;10.390;2023-06-22T06:32:53;12.93;;;5.47;;
59607;SDS011;45426;44.726;10.390;2023-06-22T06:35:19;13.40;;;5.20;;
59607;SDS011;45426;44.726;10.390;2023-06-22T06:37:46;17.80;;;6.55;;
59607;SDS011;45426;44.726;10.390;2023-06-22T06:40:14;13.70;;;5.55;;
59607;SDS011;45426;44.726;10.390;2023-06-22T06:42:41;14.80;;;6.35;;
59607;SDS011;45426;44.726;10.390;2023-06-22T06:45:20;11.95;;;5.95;;
59607;SDS011;45426;44.726;10.390;2023-06-22T06:47:49;10.27;;;5.45;;
59607;SDS011;45426;44.726;10.390;2023-06-22T06:50:16;17.60;;;6.07;;
59607;SDS011;45426;44.726;10.390;2023-06-22T06:52:41;11.27;;;5.35;;
59607;SDS011;45426;44.726;10.390;2023-06-22T06:55:07;12.55;;;5.38;;
59607;SDS011;45426;44.726;10.390;2023-06-22T06:57:36;11.05;;;5.38;;
59607;SDS011;45426;44.726;10.390;2023-06-22T07:00:06;11.07;;;5.35;;
59607;SDS011;45426;44.726;10.390;2023-06-22T07:02:37;10.93;;;5.03;;
59607;SDS011;45426;44.726;10.390;2023-06-22T07:05:04;11.90;;;4.80;;
59607;SDS011;45426;44.726;10.390;2023-06-22T07:07:29;9.85;;;5.18;;
59607;SDS011;45426;44.726;10.390;2023-06-22T07:09:55;13.45;;;5.20;;
59607;SDS011;45426;44.726;10.390;2023-06-22T07:12:21;12.32;;;4.88;;
59607;SDS011;45426;44.726;10.390;2023-06-22T07:14:46;8.80;;;4.80;;
59607;SDS011;45426;44.726;10.390;2023-06-22T07:17:11;11.98;;;5.05;;
59607;SDS011;45426;44.726;10.390;2023-06-22T07:19:37;13.52;;;5.18;;
59607;SDS011;45426;44.726;10.390;2023-06-22T07:22:03;9.20;;;5.00;;
59607;SDS011;45426;44.726;10.390;2023-06-22T07:24:28;10.80;;;4.70;;
59607;SDS011;45426;44.726;10.390;2023-06-22T07:26:54;10.55;;;4.75;;
59607;SDS011;45426;44.726;10.390;2023-06-22T07:29:20;10.10;;;4.93;;
59607;SDS011;45426;44.726;10.390;2023-06-22T07:31:46;9.27;;;4.60;;
59607;SDS011;45426;44.726;10.390;2023-06-22T07:34:12;10.93;;;4.93;;
59607;SDS011;45426;44.726;10.390;2023-06-22T07:36:38;8.77;;;4.90;;
59607;SDS011;45426;44.726;10.390;2023-06-22T07:39:04;9.20;;;4.78;;
59607;SDS011;45426;44.726;10.390;2023-06-22T07:41:30;12.15;;;5.30;;
59607;SDS011;45426;44.726;10.390;2023-06-22T07:43:56;12.07;;;4.63;;
59607;SDS011;45426;44.726;10.390;2023-06-22T07:46:22;9.63;;;4.93;;
59607;SDS011;45426;44.726;10.390;2023-06-22T07:48:48;11.73;;;5.00;;
59607;SDS011;45426;44.726;10.390;2023-06-22T07:51:13;10.68;;;4.82;;
59607;SDS011;45426;44.726;10.390;2023-06-22T07:53:43;10.73;;;5.00;;
59607;SDS011;45426;44.726;10.390;2023-06-22T07:56:12;10.70;;;4.95;;
59607;SDS011;45426;44.726;10.390;2023-06-22T07:58:39;10.57;;;5.35;;
59607;SDS011;45426;44.726;10.390;2023-06-22T08:01:05;14.00;;;5.43;;
59607;SDS011;45426;44.726;10.390;2023-06-22T08:03:31;10.20;;;5.40;;
59607;SDS011;45426;44.726;10.390;2023-06-22T08:05:57;14.70;;;5.57;;
59607;SDS011;45426;44.726;10.390;2023-06-22T08:08:23;11.50;;;4.97;;
59607;SDS011;45426;44.726;10.390;2023-06-22T08:10:48;9.85;;;5.10;;
59607;SDS011;45426;44.726;10.390;2023-06-22T08:13:14;9.70;;;5.05;;
59607;SDS011;45426;44.726;10.390;2023-06-22T08:15:39;11.57;;;5.35;;
59607;SDS011;45426;44.726;10.390;2023-06-22T08:18:05;11.57;;;5.68;;
59607;SDS011;45426;44.726;10.390;2023-06-22T08:20:30;10.63;;;5.20;;
59607;SDS011;45426;44.726;10.390;2023-06-22T08:22:56;13.93;;;5.20;;
59607;SDS011;45426;44.726;10.390;2023-06-22T08:25:23;11.25;;;5.50;;
59607;SDS011;45426;44.726;10.390;2023-06-22T08:27:49;12.60;;;4.90;;
59607;SDS011;45426;44.726;10.390;2023-06-22T08:30:15;9.88;;;5.30;;
59607;SDS011;45426;44.726;10.390;2023-06-22T08:32:40;8.50;;;4.72;;
59607;SDS011;45426;44.726;10.390;2023-06-22T08:35:06;9.82;;;5.45;;
59607;SDS011;45426;44.726;10.390;2023-06-22T08:37:33;15.23;;;4.85;;
59607;SDS011;45426;44.726;10.390;2023-06-22T08:40:03;10.38;;;4.70;;
59607;SDS011;45426;44.726;10.390;2023-06-22T08:42:33;13.53;;;5.10;;
59607;SDS011;45426;44.726;10.390;2023-06-22T08:44:59;11.98;;;4.80;;
59607;SDS011;45426;44.726;10.390;2023-06-22T08:47:26;9.68;;;4.97;;
59607;SDS011;45426;44.726;10.390;2023-06-22T08:49:53;9.35;;;4.97;;
59607;SDS011;45426;44.726;10.390;2023-06-22T08:52:18;10.10;;;5.10;;
59607;SDS011;45426;44.726;10.390;2023-06-22T08:54:48;13.93;;;5.32;;
59607;SDS011;45426;44.726;10.390;2023-06-22T08:57:13;13.15;;;4.82;;
59607;SDS011;45426;44.726;10.390;2023-06-22T08:59:39;12.30;;;4.90;;
59607;SDS011;45426;44.726;10.390;2023-06-22T09:02:05;10.95;;;5.00;;
59607;SDS011;45426;44.726;10.390;2023-06-22T09:04:31;10.77;;;5.15;;
59607;SDS011;45426;44.726;10.390;2023-06-22T09:06:59;10.63;;;5.03;;
59607;SDS011;45426;44.726;10.390;2023-06-22T09:09:25;9.88;;;4.93;;
59607;SDS011;45426;44.726;10.390;2023-06-22T09:11:51;11.05;;;5.30;;
59607;SDS011;45426;44.726;10.390;2023-06-22T09:14:16;10.68;;;5.30;;
59607;SDS011;45426;44.726;10.390;2023-06-22T09:16:42;10.93;;;5.05;;
59607;SDS011;45426;44.726;10.390;2023-06-22T09:19:10;12.57;;;5.30;;
59607;SDS011;45426;44.726;10.390;2023-06-22T09:21:35;12.13;;;5.38;;
59607;SDS011;45426;44.726;10.390;2023-06-22T09:24:02;14.05;;;5.82;;
59607;SDS011;45426;44.726;10.390;2023-06-22T09:26:28;12.27;;;5.47;;
59607;SDS011;45426;44.726;10.390;2023-06-22T09:28:53;12.32;;;5.80;;
59607;SDS011;45426;44.726;10.390;2023-06-22T09:31:19;14.40;;;5.68;;
59607;SDS011;45426;44.726;10.390;2023-06-22T09:33:50;11.35;;;5.43;;
59607;SDS011;45426;44.726;10.390;2023-06-22T09:36:17;13.77;;;5.70;;
59607;SDS011;45426;44.726;10.390;2023-06-22T09:38:42;12.50;;;5.60;;
59607;SDS011;45426;44.726;10.390;2023-06-22T09:41:07;13.48;;;6.22;;
59607;SDS011;45426;44.726;10.390;2023-06-22T09:43:33;11.15;;;5.22;;
59607;SDS011;45426;44.726;10.390;2023-06-22T09:46:01;11.95;;;5.50;;
59607;SDS011;45426;44.726;10.390;2023-06-22T09:48:28;13.10;;;5.50;;
59607;SDS011;45426;44.726;10.390;2023-06-22T09:50:55;14.88;;;5.85;;
59607;SDS011;45426;44.726;10.390;2023-06-22T09:53:20;12.32;;;6.30;;
59607;SDS011;45426;44.726;10.390;2023-06-22T09:55:46;11.55;;;6.20;;
59607;SDS011;45426;44.726;10.390;2023-06-22T09:58:11;12.88;;;5.75;;
59607;SDS011;45426;44.726;10.390;2023-06-22T10:00:37;15.93;;;5.95;;
59607;SDS011;45426;44.726;10.390;2023-06-22T10:03:02;10.63;;;5.50;;
59607;SDS011;45426;44.726;10.390;2023-06-22T10:05:28;16.73;;;6.00;;
59607;SDS011;45426;44.726;10.390;2023-06-22T10:07:53;11.85;;;5.65;;
59607;SDS011;45426;44.726;10.390;2023-06-22T10:10:19;11.10;;;5.22;;
59607;SDS011;45426;44.726;10.390;2023-06-22T10:12:48;14.18;;;5.97;;
59607;SDS011;45426;44.726;10.390;2023-06-22T10:15:20;14.77;;;5.90;;
59607;SDS011;45426;44.726;10.390;2023-06-22T10:17:46;18.33;;;6.47;;
59607;SDS011;45426;44.726;10.390;2023-06-22T10:20:12;13.55;;;5.70;;
59607;SDS011;45426;44.726;10.390;2023-06-22T10:22:41;13.15;;;5.80;;
59607;SDS011;45426;44.726;10.390;2023-06-22T10:25:08;9.93;;;5.60;;
59607;SDS011;45426;44.726;10.390;2023-06-22T10:27:34;12.57;;;5.18;;
59607;SDS011;45426;44.726;10.390;2023-06-22T10:30:00;11.13;;;6.20;;
59607;SDS011;45426;44.726;10.390;2023-06-22T10:32:25;13.95;;;5.90;;
59607;SDS011;45426;44.726;10.390;2023-06-22T10:34:53;10.63;;;5.50;;
59607;SDS011;45426;44.726;10.390;2023-06-22T10:37:18;10.30;;;5.75;;
59607;SDS011;45426;44.726;10.390;2023-06-22T10:39:43;9.75;;;5.82;;
59607;SDS011;45426;44.726;10.390;2023-06-22T10:42:09;11.48;;;5.70;;
59607;SDS011;45426;44.726;10.390;2023-06-22T10:44:34;12.38;;;5.53;;
59607;SDS011;45426;44.726;10.390;2023-06-22T10:47:00;13.75;;;5.78;;
59607;SDS011;45426;44.726;10.390;2023-06-22T10:49:25;13.57;;;6.13;;
59607;SDS011;45426;44.726;10.390;2023-06-22T10:51:50;14.15;;;5.90;;
59607;SDS011;45426;44.726;10.390;2023-06-22T10:54:16;10.70;;;6.03;;
59607;SDS011;45426;44.726;10.390;2023-06-22T10:56:43;11.95;;;6.13;;
59607;SDS011;45426;44.726;10.390;2023-06-22T10:59:09;14.13;;;5.50;;
59607;SDS011;45426;44.726;10.390;2023-06-22T11:01:34;13.88;;;5.88;;
59607;SDS011;45426;44.726;10.390;2023-06-22T11:04:00;13.32;;;5.43;;
59607;SDS011;45426;44.726;10.390;2023-06-22T11:06:25;11.93;;;5.20;;
59607;SDS011;45426;44.726;10.390;2023-06-22T11:08:50;13.57;;;5.57;;
59607;SDS011;45426;44.726;10.390;2023-06-22T11:11:16;11.73;;;5.07;;
59607;SDS011;45426;44.726;10.390;2023-06-22T11:13:42;10.93;;;5.25;;
59607;SDS011;45426;44.726;10.390;2023-06-22T11:16:09;10.43;;;5.53;;
59607;SDS011;45426;44.726;10.390;2023-06-22T11:18:35;12.00;;;5.70;;
59607;SDS011;45426;44.726;10.390;2023-06-22T11:21:00;14.45;;;5.55;;
59607;SDS011;45426;44.726;10.390;2023-06-22T11:23:26;10.02;;;5.25;;
59607;SDS011;45426;44.726;10.390;2023-06-22T11:25:52;10.40;;;5.95;;
59607;SDS011;45426;44.726;10.390;2023-06-22T11:28:18;12.07;;;6.07;;
59607;SDS011;45426;44.726;10.390;2023-06-22T11:30:43;11.15;;;5.55;;
59607;SDS011;45426;44.726;10.390;2023-06-22T11:33:09;9.60;;;5.63;;
59607;SDS011;45426;44.726;10.390;2023-06-22T11:35:34;13.95;;;5.72;;
59607;SDS011;45426;44.726;10.390;2023-06-22T11:38:00;12.15;;;5.30;;
59607;SDS011;45426;44.726;10.390;2023-06-22T11:40:25;12.68;;;5.85;;
59607;SDS011;45426;44.726;10.390;2023-06-22T11:42:51;13.43;;;7.03;;
59607;SDS011;45426;44.726;10.390;2023-06-22T11:45:17;16.67;;;5.90;;
59607;SDS011;45426;44.726;10.390;2023-06-22T11:47:43;15.88;;;6.10;;
59607;SDS011;45426;44.726;10.390;2023-06-22T11:50:09;13.23;;;5.93;;
59607;SDS011;45426;44.726;10.390;2023-06-22T11:52:35;15.63;;;6.32;;
59607;SDS011;45426;44.726;10.390;2023-06-22T11:55:03;14.35;;;6.13;;
59607;SDS011;45426;44.726;10.390;2023-06-22T11:57:32;13.05;;;5.78;;
59607;SDS011;45426;44.726;10.390;2023-06-22T11:59:58;12.15;;;5.55;;
59607;SDS011;45426;44.726;10.390;2023-06-22T12:02:24;12.23;;;5.80;;
59607;SDS011;45426;44.726;10.390;2023-06-22T12:04:49;12.10;;;5.65;;
59607;SDS011;45426;44.726;10.390;2023-06-22T12:07:17;15.65;;;5.60;;
59607;SDS011;45426;44.726;10.390;2023-06-22T12:09:43;12.63;;;5.45;;
59607;SDS011;45426;44.726;10.390;2023-06-22T12:12:09;11.02;;;5.25;;
59607;SDS011;45426;44.726;10.390;2023-06-22T12:14:34;11.77;;;5.88;;
59607;SDS011;45426;44.726;10.390;2023-06-22T12:17:00;13.20;;;5.57;;
59607;SDS011;45426;44.726;10.390;2023-06-22T12:19:25;15.68;;;5.80;;
59607;SDS011;45426;44.726;10.390;2023-06-22T12:21:50;14.20;;;6.10;;
59607;SDS011;45426;44.726;10.390;2023-06-22T12:24:16;11.85;;;6.10;;
59607;SDS011;45426;44.726;10.390;2023-06-22T12:26:41;11.48;;;5.53;;
59607;SDS011;45426;44.726;10.390;2023-06-22T12:29:07;12.35;;;5.75;;
59607;SDS011;45426;44.726;10.390;2023-06-22T12:31:33;15.27;;;6.43;;
59607;SDS011;45426;44.726;10.390;2023-06-22T12:33:58;17.23;;;6.20;;
59607;SDS011;45426;44.726;10.390;2023-06-22T12:36:24;13.73;;;5.65;;
59607;SDS011;45426;44.726;10.390;2023-06-22T12:38:49;17.25;;;6.10;;
59607;SDS011;45426;44.726;10.390;2023-06-22T12:41:15;14.73;;;6.10;;
59607;SDS011;45426;44.726;10.390;2023-06-22T12:43:40;14.75;;;5.85;;
59607;SDS011;45426;44.726;10.390;2023-06-22T12:46:05;13.93;;;6.63;;
59607;SDS011;45426;44.726;10.390;2023-06-22T12:48:31;12.63;;;5.93;;
59607;SDS011;45426;44.726;10.390;2023-06-22T12:50:56;14.45;;;6.25;;
59607;SDS011;45426;44.726;10.390;2023-06-22T12:53:22;13.05;;;6.40;;
59607;SDS011;45426;44.726;10.390;2023-06-22T12:55:52;13.05;;;6.80;;
59607;SDS011;45426;44.726;10.390;2023-06-22T12:58:17;11.43;;;6.38;;
59607;SDS011;45426;44.726;10.390;2023-06-22T13:00:43;16.23;;;6.60;;
59607;SDS011;45426;44.726;10.390;2023-06-22T13:03:08;12.73;;;6.88;;
59607;SDS011;45426;44.726;10.390;2023-06-22T13:05:34;13.82;;;6.50;;
59607;SDS011;45426;44.726;10.390;2023-06-22T13:08:01;13.63;;;6.60;;
59607;SDS011;45426;44.726;10.390;2023-06-22T13:10:26;12.35;;;6.82;;
59607;SDS011;45426;44.726;10.390;2023-06-22T13:12:52;17.45;;;6.38;;
59607;SDS011;45426;44.726;10.390;2023-06-22T13:15:25;12.52;;;6.32;;
59607;SDS011;45426;44.726;10.390;2023-06-22T13:17:50;16.10;;;7.07;;
59607;SDS011;45426;44.726;10.390;2023-06-22T13:20:16;15.43;;;7.22;;
59607;SDS011;45426;44.726;10.390;2023-06-22T13:22:41;12.70;;;7.20;;
59607;SDS011;45426;44.726;10.390;2023-06-22T13:25:09;11.82;;;7.22;;
59607;SDS011;45426;44.726;10.390;2023-06-22T13:27:36;13.10;;;7.05;;
59607;SDS011;45426;44.726;10.390;2023-06-22T13:30:03;16.33;;;6.85;;
59607;SDS011;45426;44.726;10.390;2023-06-22T13:32:29;12.70;;;6.57;;
59607;SDS011;45426;44.726;10.390;2023-06-22T13:34:54;13.30;;;6.80;;
59607;SDS011;45426;44.726;10.390;2023-06-22T13:37:20;11.68;;;6.82;;
59607;SDS011;45426;44.726;10.390;2023-06-22T13:39:45;14.65;;;6.78;;
59607;SDS011;45426;44.726;10.390;2023-06-22T13:42:10;13.48;;;7.18;;
59607;SDS011;45426;44.726;10.390;2023-06-22T13:44:36;15.85;;;7.28;;
59607;SDS011;45426;44.726;10.390;2023-06-22T13:47:01;13.52;;;6.45;;
59607;SDS011;45426;44.726;10.390;2023-06-22T13:49:28;14.60;;;6.95;;
59607;SDS011;45426;44.726;10.390;2023-06-22T13:51:53;16.33;;;6.50;;
59607;SDS011;45426;44.726;10.390;2023-06-22T13:54:18;13.93;;;6.65;;
59607;SDS011;45426;44.726;10.390;2023-06-22T13:56:44;15.07;;;6.82;;
59607;SDS011;45426;44.726;10.390;2023-06-22T13:59:09;14.68;;;7.28;;
59607;SDS011;45426;44.726;10.390;2023-06-22T14:01:35;12.43;;;6.15;;
59607;SDS011;45426;44.726;10.390;2023-06-22T14:04:02;12.57;;;6.30;;
59607;SDS011;45426;44.726;10.390;2023-06-22T14:06:27;13.40;;;6.40;;
59607;SDS011;45426;44.726;10.390;2023-06-22T14:08:53;16.58;;;6.70;;
59607;SDS011;45426;44.726;10.390;2023-06-22T14:11:18;15.93;;;6.85;;
59607;SDS011;45426;44.726;10.390;2023-06-22T14:13:44;16.00;;;6.72;;
59607;SDS011;45426;44.726;10.390;2023-06-22T14:16:09;14.10;;;6.45;;
59607;SDS011;45426;44.726;10.390;2023-06-22T14:18:35;13.13;;;6.30;;
59607;SDS011;45426;44.726;10.390;2023-06-22T14:21:00;14.18;;;6.05;;
59607;SDS011;45426;44.726;10.390;2023-06-22T14:23:26;17.75;;;6.30;;
59607;SDS011;45426;44.726;10.390;2023-06-22T14:25:52;13.55;;;6.35;;